Forside
METAR-TAF:

METAR-TAF

Lufthavne :

Ibaraki, Japan

Breddekreds: 36-11N, længdekreds: 140-25E, højde: 32 m

Aktuelle vejr

Denne rapport blev lavet for 36 minutter siden, kl. 16:00 UTC
Vind 3 kt fra nordnordøst, varierende mellem nord og nordøst
Temperatur 19°C
Fugtighed 88%
Tryk 1007 hPa
Sigt: 7000 m
Nogle få skyer i en højde af 800 ft
Brudte skyer i en højde af 5000 ft
Brudte skyer

METAR: RJAH 061600Z 03003KT 350V050 7000 FEW008 BKN050 BKN/// 19/17 Q1007

Tid: 01:36 (16:36 UTC)

Vejrudsigter

Denne rapport blev lavet for 5 timer og 22 minutter siden, kl. 11:14 UTC
Foreløbig gælder fra 06 på 12 UTC til 07 på 18 UTC
Vind 12 kt fra nordøst
Sigt: 8000 m
Nogle få skyer i en højde af 1000 ft
Brudte skyer i en højde af 2000 ft
Midlertidig
fra 06 på 12 UTC til 06 på 15 UTC
Sigt: 4000 m
let regnbyger, dis

TAF: RJAH 061114Z 0612/0718 04012KT 8000 FEW010 BKN020 TEMPO 0612/0615 4000 -SHRA BR

Vejrobservationer og prognoser fra mere end 4000 lufthavne (METAR og TAF).

De gule og røde prikker repræsenterer de meteorologiske stationer.

Flyt musen over at se navnet på stationen.

Så klik over at se vejr observationer og prognoser.

At skifte det kort: Klik på de grønne knapper med et sort kors for at zoome ind; på den grønne knap med en bindestreg for at zoome ud; eller på de grønne pile for tilstødende kort.


METAR-TAF: